sensor_id;sensor_type;location;lat;lon;timestamp;pressure;altitude;pressure_sealevel;temperature;humidity
64711;BME280;51139;45.626;6.850;2022-12-24T12:13:31;82051.03;;;4.42;100.00
64711;BME280;51139;45.626;6.850;2022-12-24T12:16:31;82047.28;;;4.59;100.00
64711;BME280;51139;45.626;6.850;2022-12-24T12:19:23;82053.13;;;4.73;100.00
64711;BME280;51139;45.626;6.850;2022-12-24T12:21:50;82044.88;;;4.68;100.00
64711;BME280;51139;45.626;6.850;2022-12-24T12:24:28;82062.69;;;4.91;100.00
64711;BME280;51139;45.626;6.850;2022-12-24T12:27:05;82055.06;;;5.09;100.00
64711;BME280;51139;45.626;6.850;2022-12-24T12:29:42;82060.38;;;5.24;100.00
64711;BME280;51139;45.626;6.850;2022-12-24T12:32:27;82055.09;;;5.17;100.00
64711;BME280;51139;45.626;6.850;2022-12-24T12:35:04;82062.28;;;5.16;100.00
64711;BME280;51139;45.626;6.850;2022-12-24T12:37:34;82049.81;;;5.09;100.00
64711;BME280;51139;45.626;6.850;2022-12-24T12:40:01;82034.06;;;5.09;100.00
64711;BME280;51139;45.626;6.850;2022-12-24T12:42:31;82043.06;;;5.29;100.00
64711;BME280;51139;45.626;6.850;2022-12-24T12:50:28;82059.41;;;5.35;100.00
64711;BME280;51139;45.626;6.850;2022-12-24T12:58:33;82044.41;;;5.67;100.00
64711;BME280;51139;45.626;6.850;2022-12-24T13:01:47;82045.00;;;5.89;100.00
64711;BME280;51139;45.626;6.850;2022-12-24T13:04:43;82041.66;;;5.88;100.00
64711;BME280;51139;45.626;6.850;2022-12-24T13:07:43;82046.09;;;6.09;100.00
64711;BME280;51139;45.626;6.850;2022-12-24T13:14:06;82050.13;;;6.10;100.00
64711;BME280;51139;45.626;6.850;2022-12-24T13:21:41;82048.03;;;6.08;100.00
64711;BME280;51139;45.626;6.850;2022-12-24T13:24:19;82043.16;;;6.36;100.00
64711;BME280;51139;45.626;6.850;2022-12-24T13:27:16;82053.47;;;6.57;100.00
64711;BME280;51139;45.626;6.850;2022-12-24T13:30:03;82043.81;;;6.52;100.00
64711;BME280;51139;45.626;6.850;2022-12-24T13:32:49;82057.50;;;6.42;100.00
64711;BME280;51139;45.626;6.850;2022-12-24T13:37:43;82059.78;;;6.23;100.00
64711;BME280;51139;45.626;6.850;2022-12-24T13:48:12;82060.66;;;6.33;100.00
64711;BME280;51139;45.626;6.850;2022-12-24T13:50:50;82060.16;;;6.42;100.00
64711;BME280;51139;45.626;6.850;2022-12-24T13:53:30;82060.50;;;6.23;100.00
64711;BME280;51139;45.626;6.850;2022-12-24T13:58:25;82072.56;;;6.11;100.00
64711;BME280;51139;45.626;6.850;2022-12-24T14:00:58;82066.59;;;6.18;100.00
64711;BME280;51139;45.626;6.850;2022-12-24T14:06:32;82068.72;;;6.12;100.00
64711;BME280;51139;45.626;6.850;2022-12-24T14:09:12;82064.84;;;6.13;100.00
64711;BME280;51139;45.626;6.850;2022-12-24T14:16:51;82060.63;;;6.10;100.00
64711;BME280;51139;45.626;6.850;2022-12-24T14:19:47;82058.53;;;6.08;100.00
64711;BME280;51139;45.626;6.850;2022-12-24T14:22:41;82064.31;;;6.07;100.00
64711;BME280;51139;45.626;6.850;2022-12-24T14:25:15;82069.72;;;5.93;100.00
64711;BME280;51139;45.626;6.850;2022-12-24T14:32:37;82073.19;;;5.88;100.00
64711;BME280;51139;45.626;6.850;2022-12-24T14:35:04;82081.94;;;5.75;100.00
64711;BME280;51139;45.626;6.850;2022-12-24T14:37:30;82075.75;;;5.65;100.00
64711;BME280;51139;45.626;6.850;2022-12-24T14:39:56;82082.97;;;5.72;100.00
64711;BME280;51139;45.626;6.850;2022-12-24T14:50:47;82089.22;;;5.53;100.00
64711;BME280;51139;45.626;6.850;2022-12-24T14:53:39;82093.06;;;5.52;100.00
64711;BME280;51139;45.626;6.850;2022-12-24T14:56:16;82097.94;;;5.40;100.00
64711;BME280;51139;45.626;6.850;2022-12-24T14:58:43;82096.72;;;5.49;100.00
64711;BME280;51139;45.626;6.850;2022-12-24T15:01:26;82101.69;;;5.16;100.00
64711;BME280;51139;45.626;6.850;2022-12-24T15:06:39;82095.91;;;4.89;100.00
64711;BME280;51139;45.626;6.850;2022-12-24T15:09:16;82099.91;;;5.11;100.00
64711;BME280;51139;45.626;6.850;2022-12-24T15:11:44;82096.38;;;5.08;100.00
64711;BME280;51139;45.626;6.850;2022-12-24T15:14:11;82091.78;;;5.01;100.00
64711;BME280;51139;45.626;6.850;2022-12-24T15:16:38;82100.03;;;5.05;100.00
64711;BME280;51139;45.626;6.850;2022-12-24T15:19:23;82104.91;;;5.01;100.00
64711;BME280;51139;45.626;6.850;2022-12-24T15:21:50;82100.84;;;4.92;100.00
64711;BME280;51139;45.626;6.850;2022-12-24T15:24:32;82101.41;;;4.99;100.00
64711;BME280;51139;45.626;6.850;2022-12-24T15:26:59;82101.16;;;4.89;100.00
64711;BME280;51139;45.626;6.850;2022-12-24T15:29:31;82109.28;;;4.99;100.00
64711;BME280;51139;45.626;6.850;2022-12-24T15:31:59;82100.69;;;4.98;100.00
64711;BME280;51139;45.626;6.850;2022-12-24T15:34:36;82105.81;;;5.04;100.00
64711;BME280;51139;45.626;6.850;2022-12-24T15:37:20;82108.16;;;4.86;100.00
64711;BME280;51139;45.626;6.850;2022-12-24T15:40:09;82114.06;;;5.08;100.00
64711;BME280;51139;45.626;6.850;2022-12-24T15:42:35;82113.06;;;5.19;100.00
64711;BME280;51139;45.626;6.850;2022-12-24T15:45:18;82112.09;;;5.01;100.00
64711;BME280;51139;45.626;6.850;2022-12-24T15:47:54;82113.53;;;5.09;100.00
64711;BME280;51139;45.626;6.850;2022-12-24T15:50:29;82113.41;;;5.15;100.00
64711;BME280;51139;45.626;6.850;2022-12-24T15:52:59;82119.91;;;5.22;100.00
64711;BME280;51139;45.626;6.850;2022-12-24T15:55:42;82123.06;;;5.20;100.00
64711;BME280;51139;45.626;6.850;2022-12-24T15:58:28;82126.06;;;5.24;100.00
64711;BME280;51139;45.626;6.850;2022-12-24T16:03:39;82125.81;;;5.15;100.00
64711;BME280;51139;45.626;6.850;2022-12-24T16:06:09;82119.69;;;5.12;100.00
64711;BME280;51139;45.626;6.850;2022-12-24T16:08:39;82123.84;;;5.07;100.00
64711;BME280;51139;45.626;6.850;2022-12-24T16:16:41;82129.81;;;5.08;100.00
64711;BME280;51139;45.626;6.850;2022-12-24T16:19:17;82124.22;;;5.11;100.00
64711;BME280;51139;45.626;6.850;2022-12-24T16:21:45;82124.41;;;5.14;100.00
64711;BME280;51139;45.626;6.850;2022-12-24T16:26:44;82118.19;;;4.95;100.00
64711;BME280;51139;45.626;6.850;2022-12-24T16:29:14;82123.47;;;5.03;100.00
64711;BME280;51139;45.626;6.850;2022-12-24T16:34:12;82117.84;;;4.99;100.00
64711;BME280;51139;45.626;6.850;2022-12-24T16:36:39;82122.63;;;5.08;100.00
64711;BME280;51139;45.626;6.850;2022-12-24T16:39:10;82122.31;;;5.12;100.00
64711;BME280;51139;45.626;6.850;2022-12-24T16:41:52;82120.06;;;5.16;100.00
64711;BME280;51139;45.626;6.850;2022-12-24T16:44:37;82127.09;;;5.21;100.00
64711;BME280;51139;45.626;6.850;2022-12-24T16:47:10;82129.41;;;5.33;100.00
64711;BME280;51139;45.626;6.850;2022-12-24T16:49:37;82125.09;;;5.43;99.89
64711;BME280;51139;45.626;6.850;2022-12-24T16:52:07;82130.69;;;5.39;99.32
64711;BME280;51139;45.626;6.850;2022-12-24T16:54:36;82127.31;;;5.31;100.00
64711;BME280;51139;45.626;6.850;2022-12-24T16:57:02;82127.41;;;5.18;100.00
64711;BME280;51139;45.626;6.850;2022-12-24T16:59:27;82131.25;;;5.17;100.00
64711;BME280;51139;45.626;6.850;2022-12-24T17:01:52;82126.72;;;4.88;100.00
64711;BME280;51139;45.626;6.850;2022-12-24T17:04:18;82122.03;;;4.94;100.00
64711;BME280;51139;45.626;6.850;2022-12-24T17:06:44;82129.34;;;4.88;100.00
64711;BME280;51139;45.626;6.850;2022-12-24T17:09:11;82131.06;;;4.86;100.00
64711;BME280;51139;45.626;6.850;2022-12-24T17:11:37;82134.00;;;4.82;100.00
64711;BME280;51139;45.626;6.850;2022-12-24T17:14:03;82129.50;;;4.61;100.00
64711;BME280;51139;45.626;6.850;2022-12-24T17:16:28;82122.72;;;4.66;100.00
64711;BME280;51139;45.626;6.850;2022-12-24T17:18:54;82125.75;;;4.78;100.00
64711;BME280;51139;45.626;6.850;2022-12-24T17:21:19;82120.84;;;4.74;100.00
64711;BME280;51139;45.626;6.850;2022-12-24T17:23:45;82130.91;;;4.62;100.00
64711;BME280;51139;45.626;6.850;2022-12-24T17:26:11;82129.13;;;4.57;100.00
64711;BME280;51139;45.626;6.850;2022-12-24T17:28:37;82127.03;;;4.56;100.00
64711;BME280;51139;45.626;6.850;2022-12-24T17:31:07;82127.59;;;4.62;100.00
64711;BME280;51139;45.626;6.850;2022-12-24T17:33:34;82128.06;;;4.52;100.00
64711;BME280;51139;45.626;6.850;2022-12-24T17:35:59;82123.31;;;4.51;100.00
64711;BME280;51139;45.626;6.850;2022-12-24T17:38:25;82125.34;;;4.45;100.00
64711;BME280;51139;45.626;6.850;2022-12-24T17:40:50;82131.44;;;4.40;100.00
64711;BME280;51139;45.626;6.850;2022-12-24T17:43:16;82133.69;;;4.57;100.00
64711;BME280;51139;45.626;6.850;2022-12-24T17:45:42;82133.16;;;4.58;100.00
64711;BME280;51139;45.626;6.850;2022-12-24T17:48:07;82136.53;;;4.66;100.00
64711;BME280;51139;45.626;6.850;2022-12-24T17:50:36;82140.53;;;4.60;100.00
64711;BME280;51139;45.626;6.850;2022-12-24T17:53:02;82139.56;;;4.49;100.00
64711;BME280;51139;45.626;6.850;2022-12-24T17:55:27;82140.13;;;4.56;100.00
64711;BME280;51139;45.626;6.850;2022-12-24T17:57:52;82144.47;;;4.53;100.00
64711;BME280;51139;45.626;6.850;2022-12-24T18:00:18;82144.28;;;4.51;100.00
64711;BME280;51139;45.626;6.850;2022-12-24T18:02:43;82146.28;;;4.58;100.00
64711;BME280;51139;45.626;6.850;2022-12-24T18:05:09;82145.25;;;4.61;100.00
64711;BME280;51139;45.626;6.850;2022-12-24T18:07:34;82153.31;;;4.63;100.00
64711;BME280;51139;45.626;6.850;2022-12-24T18:10:00;82144.16;;;4.57;100.00
64711;BME280;51139;45.626;6.850;2022-12-24T18:12:25;82151.84;;;4.55;100.00
64711;BME280;51139;45.626;6.850;2022-12-24T18:14:51;82153.81;;;4.41;100.00
64711;BME280;51139;45.626;6.850;2022-12-24T18:17:16;82155.81;;;4.48;100.00
64711;BME280;51139;45.626;6.850;2022-12-24T18:19:41;82150.63;;;4.34;100.00
64711;BME280;51139;45.626;6.850;2022-12-24T18:22:07;82151.50;;;4.37;100.00
64711;BME280;51139;45.626;6.850;2022-12-24T18:24:32;82148.78;;;4.43;100.00
64711;BME280;51139;45.626;6.850;2022-12-24T18:26:58;82144.38;;;4.37;100.00
64711;BME280;51139;45.626;6.850;2022-12-24T18:29:23;82149.72;;;4.32;100.00
64711;BME280;51139;45.626;6.850;2022-12-24T18:31:49;82145.31;;;4.27;100.00
64711;BME280;51139;45.626;6.850;2022-12-24T18:34:14;82145.88;;;4.33;100.00
64711;BME280;51139;45.626;6.850;2022-12-24T18:36:40;82141.03;;;4.37;100.00
64711;BME280;51139;45.626;6.850;2022-12-24T18:39:05;82139.81;;;4.38;100.00
64711;BME280;51139;45.626;6.850;2022-12-24T18:41:31;82139.75;;;4.30;100.00
64711;BME280;51139;45.626;6.850;2022-12-24T18:43:57;82143.22;;;4.25;100.00
64711;BME280;51139;45.626;6.850;2022-12-24T18:46:25;82136.88;;;4.20;100.00
64711;BME280;51139;45.626;6.850;2022-12-24T18:48:52;82142.63;;;4.19;100.00
64711;BME280;51139;45.626;6.850;2022-12-24T18:51:20;82142.06;;;4.13;100.00
64711;BME280;51139;45.626;6.850;2022-12-24T18:53:46;82144.34;;;4.16;100.00
64711;BME280;51139;45.626;6.850;2022-12-24T18:56:18;82138.22;;;4.14;100.00
64711;BME280;51139;45.626;6.850;2022-12-24T18:58:44;82146.84;;;4.22;100.00
64711;BME280;51139;45.626;6.850;2022-12-24T19:01:13;82144.03;;;4.20;100.00
64711;BME280;51139;45.626;6.850;2022-12-24T19:03:40;82142.69;;;4.27;100.00
64711;BME280;51139;45.626;6.850;2022-12-24T19:06:05;82136.09;;;4.33;100.00
64711;BME280;51139;45.626;6.850;2022-12-24T19:08:31;82136.41;;;4.51;100.00
64711;BME280;51139;45.626;6.850;2022-12-24T19:10:56;82133.69;;;4.35;100.00
64711;BME280;51139;45.626;6.850;2022-12-24T19:13:22;82136.09;;;4.33;100.00
64711;BME280;51139;45.626;6.850;2022-12-24T19:15:47;82138.28;;;4.43;100.00
64711;BME280;51139;45.626;6.850;2022-12-24T19:18:13;82146.06;;;4.35;100.00
64711;BME280;51139;45.626;6.850;2022-12-24T19:20:38;82145.06;;;4.38;100.00
64711;BME280;51139;45.626;6.850;2022-12-24T19:23:05;82147.06;;;4.45;100.00
64711;BME280;51139;45.626;6.850;2022-12-24T19:25:32;82150.63;;;4.56;100.00
64711;BME280;51139;45.626;6.850;2022-12-24T19:27:57;82155.72;;;4.40;100.00
64711;BME280;51139;45.626;6.850;2022-12-24T19:30:23;82148.91;;;4.16;100.00
64711;BME280;51139;45.626;6.850;2022-12-24T19:32:48;82149.00;;;4.10;100.00
64711;BME280;51139;45.626;6.850;2022-12-24T19:35:14;82156.09;;;4.02;100.00
64711;BME280;51139;45.626;6.850;2022-12-24T19:37:39;82153.13;;;3.84;100.00
64711;BME280;51139;45.626;6.850;2022-12-24T19:40:05;82157.75;;;3.91;100.00
64711;BME280;51139;45.626;6.850;2022-12-24T19:42:31;82165.22;;;3.87;100.00
64711;BME280;51139;45.626;6.850;2022-12-24T19:44:56;82160.41;;;3.78;100.00
64711;BME280;51139;45.626;6.850;2022-12-24T19:47:22;82165.31;;;3.82;100.00
64711;BME280;51139;45.626;6.850;2022-12-24T19:49:47;82162.06;;;3.89;100.00
64711;BME280;51139;45.626;6.850;2022-12-24T19:52:13;82162.78;;;3.89;100.00
64711;BME280;51139;45.626;6.850;2022-12-24T19:54:38;82158.63;;;3.73;100.00
64711;BME280;51139;45.626;6.850;2022-12-24T19:57:03;82158.91;;;3.69;100.00
64711;BME280;51139;45.626;6.850;2022-12-24T19:59:29;82163.25;;;3.67;100.00
64711;BME280;51139;45.626;6.850;2022-12-24T20:01:54;82164.47;;;3.65;100.00
64711;BME280;51139;45.626;6.850;2022-12-24T20:04:20;82167.97;;;3.68;100.00
64711;BME280;51139;45.626;6.850;2022-12-24T20:06:46;82170.56;;;3.82;100.00
64711;BME280;51139;45.626;6.850;2022-12-24T20:09:12;82160.88;;;3.90;100.00
64711;BME280;51139;45.626;6.850;2022-12-24T20:11:38;82166.34;;;3.78;100.00
64711;BME280;51139;45.626;6.850;2022-12-24T20:14:05;82176.44;;;3.74;100.00
64711;BME280;51139;45.626;6.850;2022-12-24T20:16:31;82162.84;;;3.97;100.00
64711;BME280;51139;45.626;6.850;2022-12-24T20:19:01;82168.38;;;4.07;100.00
64711;BME280;51139;45.626;6.850;2022-12-24T20:21:28;82167.91;;;3.95;100.00
64711;BME280;51139;45.626;6.850;2022-12-24T20:23:54;82173.94;;;4.03;100.00
64711;BME280;51139;45.626;6.850;2022-12-24T20:26:22;82170.84;;;3.91;100.00
64711;BME280;51139;45.626;6.850;2022-12-24T20:28:48;82170.34;;;3.93;100.00
64711;BME280;51139;45.626;6.850;2022-12-24T20:31:19;82172.88;;;3.85;100.00
64711;BME280;51139;45.626;6.850;2022-12-24T20:33:45;82172.59;;;3.75;100.00
64711;BME280;51139;45.626;6.850;2022-12-24T20:36:15;82169.56;;;3.85;100.00
64711;BME280;51139;45.626;6.850;2022-12-24T20:38:42;82173.81;;;3.74;100.00
64711;BME280;51139;45.626;6.850;2022-12-24T20:41:09;82170.50;;;3.74;100.00
64711;BME280;51139;45.626;6.850;2022-12-24T20:43:36;82170.03;;;3.97;100.00
64711;BME280;51139;45.626;6.850;2022-12-24T20:46:02;82169.63;;;4.27;100.00
64711;BME280;51139;45.626;6.850;2022-12-24T20:48:28;82171.53;;;4.05;100.00
64711;BME280;51139;45.626;6.850;2022-12-24T20:50:54;82169.78;;;3.73;100.00
64711;BME280;51139;45.626;6.850;2022-12-24T20:53:20;82170.13;;;3.56;100.00
64711;BME280;51139;45.626;6.850;2022-12-24T20:55:49;82170.81;;;3.57;100.00
64711;BME280;51139;45.626;6.850;2022-12-24T20:58:14;82164.28;;;3.50;100.00
64711;BME280;51139;45.626;6.850;2022-12-24T21:00:42;82175.06;;;3.46;100.00
64711;BME280;51139;45.626;6.850;2022-12-24T21:03:08;82166.31;;;3.44;100.00
64711;BME280;51139;45.626;6.850;2022-12-24T21:05:33;82172.03;;;3.56;100.00
64711;BME280;51139;45.626;6.850;2022-12-24T21:07:58;82181.91;;;3.49;100.00
64711;BME280;51139;45.626;6.850;2022-12-24T21:10:24;82165.28;;;3.60;100.00
64711;BME280;51139;45.626;6.850;2022-12-24T21:12:49;82174.06;;;3.49;100.00
64711;BME280;51139;45.626;6.850;2022-12-24T21:15:23;82179.31;;;3.36;100.00
64711;BME280;51139;45.626;6.850;2022-12-24T21:17:50;82182.13;;;3.38;100.00
64711;BME280;51139;45.626;6.850;2022-12-24T21:20:16;82182.84;;;3.25;100.00
64711;BME280;51139;45.626;6.850;2022-12-24T21:22:42;82183.16;;;3.21;100.00
64711;BME280;51139;45.626;6.850;2022-12-24T21:25:09;82189.00;;;3.14;100.00
64711;BME280;51139;45.626;6.850;2022-12-24T21:27:35;82187.59;;;3.13;100.00
64711;BME280;51139;45.626;6.850;2022-12-24T21:30:00;82192.50;;;3.17;100.00
64711;BME280;51139;45.626;6.850;2022-12-24T21:32:25;82192.63;;;3.11;100.00
64711;BME280;51139;45.626;6.850;2022-12-24T21:34:51;82190.00;;;3.11;100.00
64711;BME280;51139;45.626;6.850;2022-12-24T21:37:16;82198.66;;;3.06;100.00
64711;BME280;51139;45.626;6.850;2022-12-24T21:39:42;82201.69;;;3.10;100.00
64711;BME280;51139;45.626;6.850;2022-12-24T21:42:07;82195.66;;;3.15;100.00
64711;BME280;51139;45.626;6.850;2022-12-24T21:44:36;82197.66;;;3.23;100.00
64711;BME280;51139;45.626;6.850;2022-12-24T21:47:02;82201.28;;;3.33;100.00
64711;BME280;51139;45.626;6.850;2022-12-24T21:49:28;82204.81;;;3.22;100.00
64711;BME280;51139;45.626;6.850;2022-12-24T21:52:12;82204.19;;;3.16;100.00
64711;BME280;51139;45.626;6.850;2022-12-24T21:54:37;82207.13;;;3.26;100.00
64711;BME280;51139;45.626;6.850;2022-12-24T21:57:05;82210.84;;;3.30;100.00
64711;BME280;51139;45.626;6.850;2022-12-24T21:59:50;82205.91;;;3.40;100.00
64711;BME280;51139;45.626;6.850;2022-12-24T22:02:16;82213.75;;;3.40;100.00
64711;BME280;51139;45.626;6.850;2022-12-24T22:04:42;82215.47;;;3.38;100.00
64711;BME280;51139;45.626;6.850;2022-12-24T22:07:18;82212.25;;;3.31;100.00
64711;BME280;51139;45.626;6.850;2022-12-24T22:10:03;82210.44;;;3.26;100.00
64711;BME280;51139;45.626;6.850;2022-12-24T22:12:47;82204.09;;;3.21;100.00
64711;BME280;51139;45.626;6.850;2022-12-24T22:15:12;82206.31;;;3.31;100.00
64711;BME280;51139;45.626;6.850;2022-12-24T22:17:39;82200.28;;;3.36;100.00
64711;BME280;51139;45.626;6.850;2022-12-24T22:20:05;82209.03;;;3.39;100.00
